Time;durP1;ratioP1;P1;durP2;ratioP2;P2;SDS_P1;SDS_P2;PMS_P1;PMS_P2;Temp;Humidity;BMP_temperature;BMP_pressure;BME280_temperature;BME280_humidity;BME280_pressure;Samples;Min_cycle;Max_cycle;Signal;HPM_P1;HPM_P2
2022/12/19 00:01:56;;;;;;;45.37;20.20;;;;;;;-3.56;72.25;97587.75;5019781;28;20131;-78
2022/12/19 00:04:24;;;;;;;51.75;22.35;;;;;;;-3.54;72.13;97588.50;5017779;28;20050;-77
2022/12/19 00:06:52;;;;;;;42.95;19.23;;;;;;;-3.48;72.47;97598.41;5017090;28;20463;-77
2022/12/19 00:09:19;;;;;;;40.20;19.85;;;;;;;-3.43;72.28;97573.53;5017174;28;20053;-78
2022/12/19 00:11:47;;;;;;;48.78;21.63;;;;;;;-3.40;72.19;97580.22;5017138;28;20062;-78
2022/12/19 00:14:16;;;;;;;46.22;23.27;;;;;;;-3.39;71.83;97580.16;5016470;28;20511;-77
2022/12/19 00:16:44;;;;;;;53.27;23.60;;;;;;;-3.40;71.81;97593.78;5016245;28;20088;-78
2022/12/19 00:19:12;;;;;;;52.05;23.98;;;;;;;-3.41;71.74;97602.34;5015564;28;20046;-78
2022/12/19 00:21:40;;;;;;;45.17;21.27;;;;;;;-3.41;71.87;97602.34;5021649;28;20128;-79
2022/12/19 00:24:08;;;;;;;48.27;22.37;;;;;;;-3.41;71.93;97604.91;5023004;28;20045;-77
2022/12/19 00:26:47;;;;;;;53.92;21.63;;;;;;;-3.38;71.88;97622.63;5020714;28;20555;-77
2022/12/19 00:29:16;;;;;;;44.13;21.00;;;;;;;-3.36;71.93;97630.22;5016574;28;20050;-78
2022/12/19 00:31:44;;;;;;;49.58;21.25;;;;;;;-3.34;71.79;97626.69;5016830;28;20053;-77
2022/12/19 00:34:12;;;;;;;54.85;23.60;;;;;;;-3.32;72.10;97630.00;5015902;28;20504;-77
2022/12/19 00:36:40;;;;;;;50.57;22.90;;;;;;;-3.27;72.03;97624.69;5013885;28;20069;-77
2022/12/19 00:39:09;;;;;;;49.58;22.75;;;;;;;-3.24;71.85;97613.50;5013731;28;20049;-77
2022/12/19 00:41:38;;;;;;;50.75;24.25;;;;;;;-3.21;71.90;97618.47;5013727;28;20526;-77
2022/12/19 00:44:10;;;;;;;46.85;22.95;;;;;;;-3.17;71.90;97619.97;5014026;28;20093;-77
2022/12/19 00:46:39;;;;;;;48.08;21.30;;;;;;;-3.13;71.66;97614.66;5014482;28;20046;-77
2022/12/19 00:49:07;;;;;;;49.83;24.00;;;;;;;-3.12;71.47;97618.03;5019911;28;20037;-77
2022/12/19 00:51:36;;;;;;;46.83;22.20;;;;;;;-3.12;71.62;97618.03;5023547;28;20054;-78
2022/12/19 00:54:04;;;;;;;48.63;22.58;;;;;;;-3.13;71.58;97629.97;5023500;28;20050;-79
2022/12/19 00:56:35;;;;;;;48.35;22.60;;;;;;;-3.09;71.48;97622.16;5017483;28;20073;-78
2022/12/19 00:59:05;;;;;;;46.83;22.37;;;;;;;-3.04;71.68;97620.22;5015995;28;20404;-78
2022/12/19 01:01:35;;;;;;;45.63;21.17;;;;;;;-3.00;71.47;97617.44;5015185;28;20611;-77
2022/12/19 01:04:07;;;;;;;45.80;21.85;;;;;;;-2.98;71.39;97625.03;5014346;28;20050;-78
2022/12/19 01:06:54;;;;;;;46.45;21.05;;;;;;;-2.93;71.34;97623.09;5014897;28;20078;-78
2022/12/19 01:09:28;;;;;;;48.08;20.88;;;;;;;-2.93;71.30;97623.94;5015635;28;20046;-78
2022/12/19 01:14:40;;;;;;;48.25;21.85;;;;;;;-2.87;71.11;97616.88;5015383;28;20411;-77
2022/12/19 01:17:08;;;;;;;53.20;23.92;;;;;;;-2.87;71.09;97614.31;5015179;28;20054;-78
2022/12/19 01:19:37;;;;;;;46.97;22.08;;;;;;;-2.85;71.16;97607.41;5014810;28;20397;-77
2022/12/19 01:22:11;;;;;;;42.22;21.00;;;;;;;-2.84;71.13;97604.78;5015190;28;20054;-77
2022/12/19 01:24:39;;;;;;;49.17;23.05;;;;;;;-2.83;71.09;97593.66;5015225;28;20049;-78
2022/12/19 01:27:06;;;;;;;43.47;21.67;;;;;;;-2.85;71.03;97592.09;5014691;28;20054;-77
2022/12/19 01:29:34;;;;;;;45.53;21.90;;;;;;;-2.87;70.87;97604.94;5014537;28;20042;-77
2022/12/19 01:32:06;;;;;;;44.42;21.20;;;;;;;-2.87;71.05;97581.13;5014907;28;20100;-77
2022/12/19 01:34:34;;;;;;;46.65;21.92;;;;;;;-2.89;71.03;97576.09;5014960;28;20045;-77
2022/12/19 01:37:03;;;;;;;45.55;21.95;;;;;;;-2.85;71.14;97590.34;5014543;28;20432;-77
2022/12/19 01:39:30;;;;;;;43.90;20.95;;;;;;;-2.85;71.25;97590.34;5014308;28;20133;-78
2022/12/19 01:42:00;;;;;;;45.63;20.70;;;;;;;-2.83;71.00;97582.63;5014547;28;20076;-77
2022/12/19 01:44:28;;;;;;;45.75;20.77;;;;;;;-2.80;70.89;97572.25;5014693;28;20053;-75
2022/12/19 01:46:57;;;;;;;43.80;21.40;;;;;;;-2.78;70.59;97607.03;5014942;28;20431;-78
2022/12/19 01:49:30;;;;;;;47.58;21.08;;;;;;;-2.78;70.88;97581.50;5014414;28;20042;-77
2022/12/19 01:52:02;;;;;;;44.07;21.37;;;;;;;-2.77;70.84;97583.16;5016046;28;20146;-79
2022/12/19 01:54:35;;;;;;;47.80;22.23;;;;;;;-2.75;70.88;97565.22;5014911;28;20050;-78
2022/12/19 01:57:04;;;;;;;;;;;;;;;-2.70;70.65;97563.25;5015185;28;20053;-78
2022/12/19 01:59:36;;;;;;;51.75;21.60;;;;;;;-2.73;70.64;97548.09;5014620;28;20297;-78
2022/12/19 02:02:09;;;;;;;49.30;22.92;;;;;;;-2.77;70.69;97538.94;5014734;28;20056;-78
2022/12/19 02:04:37;;;;;;;47.58;22.77;;;;;;;-2.76;70.47;97548.22;5014658;28;20064;-78
2022/12/19 02:07:06;;;;;;;45.10;21.08;;;;;;;-2.74;70.88;97552.34;5014844;28;20057;-78
2022/12/19 02:09:44;;;;;;;48.95;22.90;;;;;;;-2.68;70.92;97550.41;5015437;28;20148;-78
2022/12/19 02:12:13;;;;;;;49.22;23.08;;;;;;;-2.65;70.56;97556.19;5015132;28;20100;-78
2022/12/19 02:14:41;;;;;;;47.30;23.10;;;;;;;-2.65;70.74;97565.56;5018824;28;20097;-79
2022/12/19 02:17:17;;;;;;;42.63;22.73;;;;;;;-2.65;70.73;97566.41;5034893;28;20049;-81
2022/12/19 02:20:20;;;;;;;48.03;23.45;;;;;;;-2.65;70.56;97576.63;5035372;28;20073;-84
2022/12/19 02:23:07;;;;;;;49.58;23.25;;;;;;;-2.67;70.52;97583.53;5018664;28;20065;-86
2022/12/19 02:26:09;;;;;;;54.38;22.48;;;;;;;-2.71;70.35;97579.50;5021068;28;20073;-83
2022/12/19 02:28:59;;;;;;;52.05;23.80;;;;;;;-2.73;70.33;97565.97;5022480;28;20136;-78
2022/12/19 02:31:30;;;;;;;49.03;22.83;;;;;;;-2.77;70.48;97549.16;5015765;28;20053;-78
2022/12/19 02:34:09;;;;;;;46.55;22.55;;;;;;;-2.79;70.53;97541.56;5015882;28;20060;-79
2022/12/19 02:36:41;;;;;;;51.28;23.67;;;;;;;-2.79;70.53;97558.59;5016545;28;20061;-78
2022/12/19 02:39:17;;;;;;;50.75;22.77;;;;;;;-2.80;70.56;97536.50;5014635;28;20504;-78
2022/12/19 02:41:49;;;;;;;52.20;22.77;;;;;;;-2.88;70.86;97547.13;5014650;28;20045;-78
2022/12/19 02:44:22;;;;;;;52.35;23.48;;;;;;;-2.86;70.88;97555.53;5015108;28;20054;-77
2022/12/19 02:46:53;;;;;;;46.78;22.17;;;;;;;-2.88;70.80;97557.31;5014155;28;20053;-77
2022/12/19 02:49:20;;;;;;;51.08;23.10;;;;;;;-2.85;70.69;97558.91;5014284;28;20546;-78
2022/12/19 02:51:57;;;;;;;49.70;22.75;;;;;;;-2.85;70.88;97554.63;5015648;28;20084;-78
2022/12/19 02:54:26;;;;;;;51.28;22.83;;;;;;;-2.83;70.87;97557.09;5016260;28;20057;-77
2022/12/19 02:57:00;;;;;;;49.33;22.70;;;;;;;-2.81;70.87;97535.69;5017241;28;20054;-79
2022/12/19 02:59:55;;;;;;;46.63;23.27;;;;;;;-2.79;70.79;97526.22;5017121;28;20062;-79
2022/12/19 03:02:36;;;;;;;49.92;22.85;;;;;;;-2.78;70.78;97520.19;5014658;28;20045;-79
2022/12/19 03:05:10;;;;;;;46.55;22.30;;;;;;;-2.79;70.90;97503.25;5016062;28;20050;-78
2022/12/19 03:07:49;;;;;;;51.50;21.90;;;;;;;-2.81;70.77;97514.44;5016067;28;20057;-79
2022/12/19 03:10:27;;;;;;;49.40;22.45;;;;;;;-2.79;70.86;97539.00;5016976;28;20050;-77
2022/12/19 03:13:01;;;;;;;46.83;21.75;;;;;;;-2.77;71.00;97529.53;5016969;28;20049;-77
2022/12/19 03:18:22;;;;;;;56.10;22.80;;;;;;;-2.78;70.85;97563.63;5031536;28;20041;-92
2022/12/19 03:27:06;;;;;;;52.58;22.77;;;;;;;-2.79;70.71;97548.38;5031653;28;20444;-91
2022/12/19 03:29:47;;;;;;;51.80;23.63;;;;;;;-2.78;70.79;97550.03;5013953;28;20054;-90
2022/12/19 03:32:35;;;;;;;54.47;22.70;;;;;;;-2.77;70.80;97561.91;5032497;28;20068;-89
2022/12/19 03:35:21;;;;;;;49.05;23.10;;;;;;;-2.78;70.62;97550.03;5031975;28;20069;-89
2022/12/19 03:38:14;;;;;;;47.85;20.98;;;;;;;-2.73;70.57;97555.75;5016520;28;20057;-92
2022/12/19 03:41:14;;;;;;;49.35;22.17;;;;;;;-2.72;70.68;97567.59;5031795;28;20076;-89
2022/12/19 03:44:02;;;;;;;46.00;23.42;;;;;;;-2.72;70.45;97582.94;5031181;28;20092;-90
2022/12/19 03:47:09;;;;;;;49.80;22.02;;;;;;;-2.70;70.82;97583.69;5030348;28;20057;-90
2022/12/19 03:50:01;;;;;;;54.72;24.75;;;;;;;-2.69;70.53;97582.78;5031896;28;20065;-90
2022/12/19 03:52:57;;;;;;;48.13;22.27;;;;;;;-2.70;70.66;97583.69;5032530;28;20061;-90
2022/12/19 03:55:53;;;;;;;51.33;24.95;;;;;;;-2.73;70.33;97573.63;5031934;28;20058;-89
2022/12/19 03:58:34;;;;;;;52.70;22.70;;;;;;;-2.75;70.26;97565.22;5031384;28;20050;-90
2022/12/19 04:01:23;;;;;;;48.80;22.98;;;;;;;-2.78;70.55;97561.06;5030980;28;20050;-90
2022/12/19 04:04:08;;;;;;;49.95;23.77;;;;;;;-2.76;70.99;97555.88;5030824;28;20054;-92
2022/12/19 04:06:46;;;;;;;46.75;22.40;;;;;;;-2.75;70.66;97562.66;5031567;28;20058;-91
2022/12/19 04:10:12;;;;;;;49.30;22.73;;;;;;;-2.78;70.83;97555.97;5032452;28;20034;-91
2022/12/19 04:13:15;;;;;;;47.10;21.23;;;;;;;-2.73;70.85;97565.97;5031445;28;20053;-89
2022/12/19 04:16:04;;;;;;;52.28;23.48;;;;;;;-2.75;70.79;97566.03;5028360;28;20053;-90
2022/12/19 04:18:48;;;;;;;50.60;23.80;;;;;;;-2.73;70.82;97574.44;5031933;28;20061;-88
2022/12/19 04:21:37;;;;;;;46.42;21.67;;;;;;;-2.69;70.64;97575.09;5015726;28;20045;-90
2022/12/19 04:27:35;;;;;;;51.95;23.55;;;;;;;-2.62;70.56;97576.47;5032015;28;20057;-89
2022/12/19 04:30:14;;;;;;;49.95;22.65;;;;;;;-2.56;70.89;97570.22;5015101;28;20064;-89
2022/12/19 04:33:04;;;;;;;56.60;24.08;;;;;;;-2.56;70.92;97578.72;5032742;28;20093;-90
2022/12/19 04:35:52;;;;;;;54.70;25.15;;;;;;;-2.57;70.99;97571.13;5032650;28;20054;-89
2022/12/19 04:38:40;;;;;;;51.33;24.60;;;;;;;-2.56;70.98;97580.44;5035399;28;20082;-92
2022/12/19 04:41:24;;;;;;;53.50;22.55;;;;;;;-2.54;71.06;97584.56;5035033;28;20046;-90
2022/12/19 04:44:11;;;;;;;51.92;23.23;;;;;;;-2.55;71.07;97572.72;5035723;28;20064;-89
2022/12/19 04:47:15;;;;;;;55.20;23.67;;;;;;;-2.54;71.50;97579.47;5020582;28;20052;-89
2022/12/19 04:50:11;;;;;;;51.90;23.70;;;;;;;-2.50;71.17;97572.47;5020877;28;20057;-89
2022/12/19 04:53:00;;;;;;;55.03;23.98;;;;;;;-2.47;71.23;97574.91;5007511;28;20050;-90
2022/12/19 04:55:52;;;;;;;54.53;24.35;;;;;;;-2.45;71.36;97573.06;5009289;28;20113;-91
2022/12/19 04:58:42;;;;;;;54.65;23.88;;;;;;;-2.44;71.33;97568.81;5021819;28;20085;-90
2022/12/19 05:01:35;;;;;;;51.38;23.38;;;;;;;-2.44;71.11;97563.69;5022442;28;20050;-91
2022/12/19 05:04:50;;;;;;;51.60;24.77;;;;;;;-2.46;71.23;97560.38;5035916;28;20140;-90
2022/12/19 05:13:58;;;;;;;55.55;23.15;;;;;;;-2.44;71.37;97559.41;5024263;28;20088;-91
2022/12/19 05:22:48;;;;;;;51.33;24.03;;;;;;;-2.45;71.38;97580.72;5036821;28;20080;-88
2022/12/19 05:28:59;;;;;;;49.47;22.88;;;;;;;-2.39;71.67;97587.28;5035269;28;20034;-90
2022/12/19 05:55:49;;;;;;;54.72;24.65;;;;;;;-2.16;72.40;97563.94;5125225;22;21056;-83
2022/12/19 06:06:29;;;;;;;51.13;24.90;;;;;;;-2.07;72.40;97548.13;5008192;28;20053;-82
2022/12/19 06:09:14;;;;;;;49.80;23.05;;;;;;;-2.04;72.37;97553.97;5010228;28;20110;-86
2022/12/19 06:11:49;;;;;;;56.33;25.63;;;;;;;-2.01;72.65;97552.09;5012543;28;20106;-87
2022/12/19 06:14:19;;;;;;;53.22;25.30;;;;;;;-2.00;72.75;97553.72;5003292;28;20054;-83
2022/12/19 06:16:46;;;;;;;55.53;24.00;;;;;;;-1.99;72.83;97555.41;4993000;28;20057;-83
2022/12/19 06:19:14;;;;;;;51.30;24.77;;;;;;;-1.97;73.15;97547.63;4993116;28;20050;-84
2022/12/19 06:21:41;;;;;;;54.15;24.40;;;;;;;-1.94;73.27;97547.47;4993477;28;20054;-82
2022/12/19 06:24:15;;;;;;;57.92;25.88;;;;;;;-1.91;73.21;97554.97;4993678;28;20057;-82
2022/12/19 06:26:42;;;;;;;53.38;23.02;;;;;;;-1.91;73.21;97550.69;4993617;28;20055;-82
2022/12/19 06:29:12;;;;;;;57.28;26.27;;;;;;;-1.90;73.43;97544.69;4993172;28;20046;-82
2022/12/19 06:31:39;;;;;;;51.17;22.10;;;;;;;-1.88;73.68;97532.63;4993488;28;20062;-84
2022/12/19 06:34:07;;;;;;;55.78;25.65;;;;;;;-1.84;73.67;97538.41;4994185;28;20046;-82
2022/12/19 06:36:34;;;;;;;54.97;26.77;;;;;;;-1.81;73.61;97537.44;4994990;28;20520;-82
2022/12/19 06:39:02;;;;;;;55.47;24.95;;;;;;;-1.79;73.82;97539.00;4993735;28;20050;-82
2022/12/19 06:44:17;;;;;;;54.20;24.35;;;;;;;-1.74;74.01;97528.50;4993528;28;20050;-82
2022/12/19 06:46:45;;;;;;;53.70;25.52;;;;;;;-1.73;73.81;97536.13;4993728;28;20085;-82
2022/12/19 06:49:12;;;;;;;54.42;24.30;;;;;;;-1.72;74.03;97531.81;4993101;28;20425;-82
2022/12/19 06:51:40;;;;;;;54.33;24.40;;;;;;;-1.71;74.05;97528.34;4993289;28;20050;-82
2022/12/19 06:54:09;;;;;;;55.65;25.50;;;;;;;-1.70;74.25;97524.88;4993373;28;20057;-82
2022/12/19 06:56:38;;;;;;;52.55;23.95;;;;;;;-1.69;74.11;97532.47;4993254;28;20072;-82
2022/12/19 06:59:07;;;;;;;53.50;22.95;;;;;;;-1.67;74.24;97525.53;4993313;28;20428;-82
2022/12/19 07:01:51;;;;;;;52.22;23.92;;;;;;;-1.62;74.50;97527.00;4993301;28;20066;-82
2022/12/19 07:04:24;;;;;;;57.45;27.27;;;;;;;-1.62;73.98;97522.72;4993170;28;20050;-82
2022/12/19 07:06:51;;;;;;;53.28;23.95;;;;;;;-1.61;73.94;97508.22;4993079;28;20085;-82
2022/12/19 07:09:20;;;;;;;54.22;24.67;;;;;;;-1.61;73.96;97503.09;4993223;28;20050;-82
2022/12/19 07:11:48;;;;;;;54.83;25.63;;;;;;;-1.61;73.92;97505.66;4993254;28;20055;-82
2022/12/19 07:14:15;;;;;;;52.58;22.83;;;;;;;-1.60;74.03;97499.63;4993011;28;20061;-83
2022/12/19 07:16:45;;;;;;;56.33;26.48;;;;;;;-1.60;74.20;97497.88;4993092;28;20050;-82
2022/12/19 07:19:13;;;;;;;52.85;24.42;;;;;;;-1.59;74.28;97485.94;4992935;28;20113;-82
2022/12/19 07:21:41;;;;;;;57.25;24.15;;;;;;;-1.56;74.53;97495.97;4993120;28;20050;-82
2022/12/19 07:24:11;;;;;;;53.67;25.42;;;;;;;-1.53;74.15;97504.34;4993125;28;20054;-82
2022/12/19 07:26:38;;;;;;;54.17;24.30;;;;;;;-1.53;74.01;97526.50;4993082;28;20429;-82
2022/12/19 07:29:06;;;;;;;54.72;25.85;;;;;;;-1.55;73.96;97512.97;4992646;28;20062;-82
2022/12/19 07:31:35;;;;;;;54.35;25.15;;;;;;;-1.56;73.82;97532.63;4992940;28;20049;-82
2022/12/19 07:34:04;;;;;;;56.75;25.90;;;;;;;-1.57;73.83;97531.00;4992768;28;20046;-82
2022/12/19 07:36:31;;;;;;;58.80;26.73;;;;;;;-1.57;73.85;97528.44;4993345;28;20051;-82
2022/12/19 07:38:59;;;;;;;60.97;26.02;;;;;;;-1.56;73.92;97532.63;4992860;28;20057;-82
2022/12/19 07:41:27;;;;;;;57.15;25.08;;;;;;;-1.53;73.90;97541.84;4994459;28;20058;-80
2022/12/19 07:43:54;;;;;;;55.10;23.30;;;;;;;-1.51;73.67;97535.78;4996524;28;20050;-80
2022/12/19 07:46:22;;;;;;;57.20;26.23;;;;;;;-1.50;73.75;97545.09;4996706;28;20080;-81
2022/12/19 07:48:50;;;;;;;58.38;26.80;;;;;;;-1.49;73.77;97543.34;4995900;28;20074;-81
2022/12/19 07:51:19;;;;;;;58.63;25.88;;;;;;;-1.50;73.79;97551.94;4996062;28;20141;-80
2022/12/19 07:53:47;;;;;;;55.13;26.35;;;;;;;-1.48;73.76;97555.25;4994019;28;20060;-82
2022/12/19 07:56:16;;;;;;;53.15;25.90;;;;;;;-1.48;73.64;97566.31;4992879;28;20233;-82
2022/12/19 07:58:44;;;;;;;58.83;25.67;;;;;;;-1.46;73.61;97559.38;4992965;28;20066;-82
2022/12/19 08:01:12;;;;;;;57.97;23.95;;;;;;;-1.45;73.47;97562.75;4992781;28;20497;-83
2022/12/19 08:03:39;;;;;;;59.58;27.75;;;;;;;-1.46;73.43;97563.66;4993001;28;20051;-82
2022/12/19 08:06:08;;;;;;;52.35;25.77;;;;;;;-1.46;73.47;97561.13;4992941;28;20054;-83
2022/12/19 08:08:37;;;;;;;54.00;25.88;;;;;;;-1.46;73.27;97567.06;4992738;28;20053;-82
2022/12/19 08:11:09;;;;;;;58.47;25.50;;;;;;;-1.43;73.93;97567.78;4993044;28;20078;-82
2022/12/19 08:13:37;;;;;;;56.42;26.75;;;;;;;-1.41;73.71;97565.97;4995840;28;20485;-82
2022/12/19 08:16:12;;;;;;;58.03;25.83;;;;;;;-1.39;73.72;97559.88;4996442;28;20046;-82
2022/12/19 08:18:40;;;;;;;56.65;25.48;;;;;;;-1.36;73.87;97562.25;4996216;28;20118;-83
2022/12/19 08:21:08;;;;;;;54.75;25.45;;;;;;;-1.33;73.64;97556.16;4996214;28;20046;-82
2022/12/19 08:23:38;;;;;;;52.85;25.80;;;;;;;-1.31;73.74;97557.72;5005739;28;20054;-82
2022/12/19 08:26:07;;;;;;;63.17;26.95;;;;;;;-1.26;73.76;97549.78;5011976;28;20050;-82
2022/12/19 08:28:36;;;;;;;52.30;24.40;;;;;;;-1.21;73.83;97554.63;4999952;28;20088;-83
2022/12/19 08:31:06;;;;;;;56.67;25.67;;;;;;;-1.16;74.00;97553.50;4996624;28;20057;-83
2022/12/19 08:33:33;;;;;;;55.67;23.63;;;;;;;-1.12;73.96;97539.56;4995945;28;20050;-82
2022/12/19 08:36:03;;;;;;;58.38;27.38;;;;;;;-1.07;74.15;97541.91;4996882;28;20050;-83
2022/12/19 08:38:31;;;;;;;52.25;25.05;;;;;;;-1.04;73.93;97542.53;4995625;28;20054;-83
2022/12/19 08:41:00;;;;;;;58.33;26.42;;;;;;;-0.94;74.24;97537.75;4995925;28;20141;-82
2022/12/19 08:43:29;;;;;;;53.10;23.80;;;;;;;-0.88;74.19;97539.94;4995906;28;20057;-83
2022/12/19 08:45:57;;;;;;;57.05;26.55;;;;;;;-0.81;74.35;97540.41;4996021;28;20052;-82
2022/12/19 08:48:25;;;;;;;54.80;26.55;;;;;;;-0.73;74.30;97537.41;4995702;28;20046;-83
2022/12/19 08:50:53;;;;;;;55.22;25.25;;;;;;;-0.68;74.35;97543.09;4995984;28;20050;-82
2022/12/19 08:53:21;;;;;;;56.65;25.08;;;;;;;-0.64;74.11;97536.88;4996862;28;20054;-83
2022/12/19 08:55:55;;;;;;;56.28;25.48;;;;;;;-0.59;74.26;97545.16;4995895;28;20050;-83
2022/12/19 08:58:24;;;;;;;50.78;25.08;;;;;;;-0.54;74.02;97547.44;4995610;28;20050;-83
2022/12/19 09:00:52;;;;;;;54.78;24.70;;;;;;;-0.49;74.02;97556.50;4995908;28;20401;-83
2022/12/19 09:03:28;;;;;;;59.42;25.50;;;;;;;-0.44;74.13;97549.38;4995418;28;20054;-83
2022/12/19 09:06:08;;;;;;;59.35;25.58;;;;;;;-0.42;74.06;97542.41;4995727;28;20055;-83
2022/12/19 09:08:45;;;;;;;53.10;24.10;;;;;;;-0.37;74.14;97552.41;4995388;28;20050;-82
2022/12/19 09:11:15;;;;;;;53.60;25.42;;;;;;;-0.35;73.75;97553.13;4995403;28;20428;-83
2022/12/19 09:13:45;;;;;;;58.25;25.08;;;;;;;-0.31;73.73;97553.75;4995149;28;20133;-83
2022/12/19 09:16:14;;;;;;;52.03;25.48;;;;;;;-0.27;74.01;97557.78;5033332;22;20534;-75
2022/12/19 09:18:44;;;;;;;49.53;24.80;;;;;;;-0.23;74.00;97554.13;5015879;28;20050;-76
2022/12/19 09:21:16;;;;;;;55.28;25.30;;;;;;;-0.18;73.80;97552.13;5034306;28;20054;-76
2022/12/19 09:23:48;;;;;;;54.88;26.95;;;;;;;-0.15;73.97;97546.81;5032730;28;20050;-76
2022/12/19 09:26:17;;;;;;;52.58;24.70;;;;;;;-0.12;73.73;97553.50;5023531;28;20053;-76
2022/12/19 09:28:46;;;;;;;58.60;26.05;;;;;;;-0.06;73.67;97564.22;5019256;28;20124;-76
2022/12/19 09:31:16;;;;;;;59.17;26.23;;;;;;;-0.01;73.92;97562.19;5016400;28;20046;-76
2022/12/19 09:33:45;;;;;;;60.20;28.30;;;;;;;0.08;73.62;97557.44;5015351;28;20042;-76
2022/12/19 09:36:15;;;;;;;59.30;26.48;;;;;;;0.12;73.52;97556.34;5015184;28;20056;-76
2022/12/19 09:38:43;;;;;;;61.17;27.52;;;;;;;0.16;73.74;97556.03;5014909;28;20056;-75
2022/12/19 09:41:30;;;;;;;57.50;26.33;;;;;;;0.19;73.51;97550.72;5014861;28;20109;-75
2022/12/19 09:44:09;;;;;;;56.25;27.10;;;;;;;0.23;73.54;97542.84;5015337;28;20045;-76
2022/12/19 09:46:48;;;;;;;62.53;27.15;;;;;;;0.24;73.39;97540.19;5020318;28;20121;-76
2022/12/19 09:49:20;;;;;;;54.50;23.75;;;;;;;0.26;73.14;97537.53;5035190;28;20038;-76
2022/12/19 09:51:56;;;;;;;54.90;25.85;;;;;;;0.29;73.33;97527.91;5036614;28;20044;-76
2022/12/19 09:54:27;;;;;;;54.00;26.00;;;;;;;0.32;73.34;97526.88;5018786;28;20045;-76
2022/12/19 09:56:59;;;;;;;61.10;26.70;;;;;;;0.36;73.58;97520.66;5015965;28;20045;-76
2022/12/19 09:59:32;;;;;;;56.57;25.03;;;;;;;0.38;73.40;97506.78;5015014;28;20054;-76
2022/12/19 10:02:24;;;;;;;57.92;26.55;;;;;;;0.41;73.48;97510.91;5015433;28;20056;-78
2022/12/19 10:04:59;;;;;;;56.30;25.73;;;;;;;0.47;73.55;97518.22;5015569;28;20077;-76
2022/12/19 10:07:46;;;;;;;57.47;25.98;;;;;;;0.53;73.43;97519.59;5014586;28;20053;-75
2022/12/19 10:10:43;;;;;;;58.25;26.30;;;;;;;0.56;73.34;97509.13;5015134;28;20053;-78
2022/12/19 10:13:45;;;;;;;57.53;27.27;;;;;;;0.64;73.58;97513.78;5014832;28;20049;-76
2022/12/19 10:16:25;;;;;;;54.35;25.35;;;;;;;0.67;73.46;97501.56;5015732;28;20053;-75
2022/12/19 10:18:56;;;;;;;57.85;24.90;;;;;;;0.73;73.44;97508.06;5013960;28;20053;-75
2022/12/19 10:21:36;;;;;;;54.63;25.65;;;;;;;0.77;73.70;97504.38;5014906;28;20054;-76
2022/12/19 10:24:38;;;;;;;56.45;26.42;;;;;;;0.81;73.46;97487.84;5013979;28;20142;-76
2022/12/19 10:27:15;;;;;;;56.05;25.50;;;;;;;0.85;73.60;97503.88;5014296;28;20046;-76
2022/12/19 10:30:00;;;;;;;61.38;26.17;;;;;;;0.88;73.84;97498.56;5014567;28;20053;-76
2022/12/19 10:32:36;;;;;;;54.75;25.75;;;;;;;0.92;73.41;97492.25;5029981;28;20053;-77
2022/12/19 10:35:13;;;;;;;57.28;25.50;;;;;;;0.98;73.65;97482.44;5025470;28;20094;-76
2022/12/19 10:37:48;;;;;;;53.35;25.25;;;;;;;1.05;73.25;97485.44;5019407;28;20057;-76
2022/12/19 10:40:25;;;;;;;57.33;26.05;;;;;;;1.14;73.30;97489.97;5014576;28;20050;-76
2022/12/19 10:42:58;;;;;;;55.45;24.35;;;;;;;1.24;73.26;97488.41;5014087;28;20095;-76
2022/12/19 10:45:37;;;;;;;52.97;24.95;;;;;;;1.34;72.69;97487.81;5014098;28;20081;-76
2022/12/19 10:48:15;;;;;;;51.83;23.80;;;;;;;1.41;73.22;97478.75;5013952;28;20439;-75
2022/12/19 10:50:43;;;;;;;52.95;24.38;;;;;;;1.46;72.71;97489.56;5014378;28;20061;-75
2022/12/19 10:53:12;;;;;;;50.67;24.55;;;;;;;1.51;73.05;97477.22;5014131;28;20428;-76
2022/12/19 10:55:43;;;;;;;55.88;24.67;;;;;;;1.57;72.93;97471.66;5014194;28;20041;-76
2022/12/19 10:58:19;;;;;;;54.25;24.85;;;;;;;1.64;72.66;97452.31;5013586;28;20511;-76
2022/12/19 11:00:59;;;;;;;46.25;21.80;;;;;;;1.80;72.81;97453.84;5014158;28;20053;-77
2022/12/19 11:03:28;;;;;;;48.25;22.70;;;;;;;1.94;72.46;97438.25;5014599;28;20072;-76
2022/12/19 11:05:57;;;;;;;44.67;21.38;;;;;;;2.08;72.15;97436.47;5014637;28;20050;-76
2022/12/19 11:08:27;;;;;;;49.42;24.42;;;;;;;2.18;71.97;97446.00;5014255;28;20050;-76
2022/12/19 11:10:56;;;;;;;45.40;21.42;;;;;;;2.29;71.97;97449.56;5014120;28;20092;-76
2022/12/19 11:13:46;;;;;;;46.13;21.67;;;;;;;2.36;71.90;97445.63;5028965;28;20038;-76
2022/12/19 11:16:35;;;;;;;52.75;25.73;;;;;;;2.39;71.82;97451.38;5036160;28;20050;-76
2022/12/19 11:19:31;;;;;;;48.13;22.98;;;;;;;2.42;71.82;97440.84;5020914;28;20061;-79
2022/12/19 11:22:22;;;;;;;55.30;25.17;;;;;;;2.45;71.82;97443.22;5013699;28;20069;-76
2022/12/19 11:25:16;;;;;;;44.30;22.02;;;;;;;2.48;71.94;97445.56;5013135;28;20558;-76
2022/12/19 11:28:09;;;;;;;46.10;22.70;;;;;;;2.52;71.87;97438.47;5012884;28;20112;-76
2022/12/19 11:31:07;;;;;;;47.60;24.27;;;;;;;2.56;71.96;97439.03;5012936;28;20054;-75
2022/12/19 11:34:01;;;;;;;47.60;22.70;;;;;;;2.59;71.79;97443.97;5012266;28;20428;-76
2022/12/19 11:36:36;;;;;;;47.97;23.00;;;;;;;2.62;71.81;97441.19;5013097;28;20118;-76
2022/12/19 11:39:08;;;;;;;51.28;24.40;;;;;;;2.65;71.85;97438.41;5012982;28;20081;-76
2022/12/19 11:41:42;;;;;;;44.22;22.15;;;;;;;2.70;72.14;97436.28;5013170;28;20060;-76
2022/12/19 11:44:22;;;;;;;45.03;21.60;;;;;;;2.76;71.44;97410.09;5012862;28;20050;-76
2022/12/19 11:46:56;;;;;;;47.10;22.38;;;;;;;2.86;71.30;97418.78;5013825;28;20050;-76
2022/12/19 11:49:30;;;;;;;45.53;21.65;;;;;;;3.01;71.09;97428.88;5017098;28;20061;-76
2022/12/19 11:52:02;;;;;;;;;;;;;;;3.12;71.02;97421.16;5017422;28;20132;-76
2022/12/19 11:54:34;;;;;;;44.47;21.52;;;;;;;3.19;70.81;97419.78;5017833;28;19921;-76
2022/12/19 11:57:02;;;;;;;51.15;24.00;;;;;;;3.25;70.25;97416.72;5018278;28;20068;-76
2022/12/19 11:59:32;;;;;;;46.58;23.55;;;;;;;3.32;70.14;97411.09;5016945;28;20053;-76
2022/12/19 12:02:33;;;;;;;50.40;23.10;;;;;;;3.41;70.22;97410.41;5017816;28;20149;-76
2022/12/19 12:05:19;;;;;;;52.15;23.65;;;;;;;3.46;69.52;97398.00;5025220;28;20081;-76
2022/12/19 12:07:57;;;;;;;46.38;23.65;;;;;;;3.48;69.26;97393.53;5038473;28;20062;-76
2022/12/19 12:11:00;;;;;;;52.85;24.05;;;;;;;3.48;69.14;97383.22;5032338;28;20116;-76
2022/12/19 12:14:05;;;;;;;49.15;23.02;;;;;;;3.53;69.46;97388.03;5017272;28;20412;-76
2022/12/19 12:17:18;;;;;;;45.95;23.48;;;;;;;3.58;69.19;97384.13;5016197;28;20053;-76
2022/12/19 12:20:21;;;;;;;48.38;23.23;;;;;;;3.65;68.85;97384.47;5016986;28;20058;-76
2022/12/19 12:23:24;;;;;;;48.42;24.30;;;;;;;3.68;68.80;97387.66;5016894;28;20108;-76
2022/12/19 12:26:18;;;;;;;41.13;21.40;;;;;;;3.64;68.50;97375.94;5017467;28;20050;-78
2022/12/19 12:29:16;;;;;;;48.95;24.23;;;;;;;3.57;68.97;97387.66;5018252;28;20053;-76
2022/12/19 12:32:18;;;;;;;41.50;22.52;;;;;;;3.46;68.86;97391.06;5016439;28;20105;-76
2022/12/19 12:35:19;;;;;;;38.42;20.63;;;;;;;3.32;69.25;97390.47;5016358;28;20049;-76
2022/12/19 12:38:24;;;;;;;47.50;23.75;;;;;;;3.23;69.70;97387.66;5015960;28;20053;-76
2022/12/19 12:41:12;;;;;;;44.08;22.75;;;;;;;3.14;69.82;97385.78;5016752;28;20049;-75
2022/12/19 12:43:54;;;;;;;46.03;23.52;;;;;;;3.08;69.77;97399.97;5035419;28;20118;-76
2022/12/19 12:46:26;;;;;;;48.28;24.10;;;;;;;3.04;70.06;97393.41;5034279;28;20073;-76
2022/12/19 12:48:58;;;;;;;47.80;23.60;;;;;;;3.00;70.48;97373.13;5020137;28;20054;-76
2022/12/19 12:51:27;;;;;;;46.88;23.77;;;;;;;2.91;70.45;97371.22;5016124;28;20054;-76
2022/12/19 12:54:03;;;;;;;44.05;22.27;;;;;;;2.86;70.64;97382.72;5015481;28;20500;-76
2022/12/19 12:56:32;;;;;;;47.40;23.45;;;;;;;2.84;70.49;97391.47;5018945;28;20042;-76
2022/12/19 12:59:20;;;;;;;45.53;23.40;;;;;;;2.81;71.12;97382.22;5015108;28;20064;-76
2022/12/19 13:01:56;;;;;;;46.22;24.92;;;;;;;2.80;71.35;97378.00;5015595;28;20077;-76
2022/12/19 13:04:28;;;;;;;50.95;23.58;;;;;;;2.81;71.34;97387.38;5015545;28;20060;-75
2022/12/19 13:07:24;;;;;;;45.90;24.10;;;;;;;2.84;71.55;97386.31;5015598;28;20427;-76
2022/12/19 13:10:06;;;;;;;50.63;23.77;;;;;;;2.85;71.02;97381.06;5015250;28;20083;-75